sensor_id;sensor_type;location;lat;lon;timestamp;pressure;altitude;pressure_sealevel;temperature;humidity
6204;BME280;3135;42.602;23.468;2023-02-14T00:00:00;94313.44;;;0.05;100.00
6204;BME280;3135;42.602;23.468;2023-02-14T00:02:26;94313.72;;;-0.05;100.00
6204;BME280;3135;42.602;23.468;2023-02-14T00:04:51;94303.94;;;-0.11;100.00
6204;BME280;3135;42.602;23.468;2023-02-14T00:07:16;94312.91;;;-0.05;100.00
6204;BME280;3135;42.602;23.468;2023-02-14T00:09:42;94298.69;;;-0.11;100.00
6204;BME280;3135;42.602;23.468;2023-02-14T00:12:07;94296.31;;;-0.06;100.00
6204;BME280;3135;42.602;23.468;2023-02-14T00:14:33;94305.72;;;0.04;100.00
6204;BME280;3135;42.602;23.468;2023-02-14T00:17:17;94317.59;;;-0.01;100.00
6204;BME280;3135;42.602;23.468;2023-02-14T00:19:42;94299.81;;;-0.20;100.00
6204;BME280;3135;42.602;23.468;2023-02-14T00:22:08;94317.59;;;-0.01;100.00
6204;BME280;3135;42.602;23.468;2023-02-14T00:24:33;94325.38;;;-0.14;100.00
6204;BME280;3135;42.602;23.468;2023-02-14T00:26:59;94318.16;;;-0.05;100.00
6204;BME280;3135;42.602;23.468;2023-02-14T00:29:27;94314.72;;;-0.06;100.00
6204;BME280;3135;42.602;23.468;2023-02-14T00:31:53;94298.25;;;-0.14;100.00
6204;BME280;3135;42.602;23.468;2023-02-14T00:34:19;94306.22;;;-0.08;100.00
6204;BME280;3135;42.602;23.468;2023-02-14T00:36:45;94286.13;;;-0.15;100.00
6204;BME280;3135;42.602;23.468;2023-02-14T00:39:12;94303.94;;;-0.11;100.00
6204;BME280;3135;42.602;23.468;2023-02-14T00:41:38;94290.56;;;-0.16;100.00
6204;BME280;3135;42.602;23.468;2023-02-14T00:44:04;94303.47;;;0.01;100.00
6204;BME280;3135;42.602;23.468;2023-02-14T00:46:30;94303.31;;;0.09;100.00
6204;BME280;3135;42.602;23.468;2023-02-14T00:48:55;94296.31;;;-0.06;100.00
6204;BME280;3135;42.602;23.468;2023-02-14T00:51:21;94288.25;;;-0.04;100.00
6204;BME280;3135;42.602;23.468;2023-02-14T00:53:47;94279.56;;;-0.05;100.00
6204;BME280;3135;42.602;23.468;2023-02-14T00:56:14;94298.06;;;0.09;100.00
6204;BME280;3135;42.602;23.468;2023-02-14T00:58:40;94285.50;;;0.04;100.00
6204;BME280;3135;42.602;23.468;2023-02-14T01:01:06;94268.06;;;-0.04;100.00
6204;BME280;3135;42.602;23.468;2023-02-14T01:03:33;94286.31;;;0.05;100.00
6204;BME280;3135;42.602;23.468;2023-02-14T01:05:58;94274.47;;;-0.06;100.00
6204;BME280;3135;42.602;23.468;2023-02-14T01:08:24;94268.06;;;-0.04;100.00
6204;BME280;3135;42.602;23.468;2023-02-14T01:10:50;94275.78;;;0.05;100.00
6204;BME280;3135;42.602;23.468;2023-02-14T01:13:16;94279.88;;;0.07;100.00
6204;BME280;3135;42.602;23.468;2023-02-14T01:15:44;94279.91;;;0.14;100.00
6204;BME280;3135;42.602;23.468;2023-02-14T01:18:11;94288.38;;;0.09;100.00
6204;BME280;3135;42.602;23.468;2023-02-14T01:20:37;94288.19;;;0.11;100.00
6204;BME280;3135;42.602;23.468;2023-02-14T01:23:02;94274.84;;;0.12;100.00
6204;BME280;3135;42.602;23.468;2023-02-14T01:25:28;94272.78;;;0.08;100.00
6204;BME280;3135;42.602;23.468;2023-02-14T01:27:54;94273.25;;;0.11;100.00
6204;BME280;3135;42.602;23.468;2023-02-14T01:30:20;94268.53;;;0.07;100.00
6204;BME280;3135;42.602;23.468;2023-02-14T01:32:45;94248.09;;;0.02;100.00
6204;BME280;3135;42.602;23.468;2023-02-14T01:35:11;94278.81;;;0.02;100.00
6204;BME280;3135;42.602;23.468;2023-02-14T01:37:36;94249.91;;;0.02;100.00
6204;BME280;3135;42.602;23.468;2023-02-14T01:40:03;94246.47;;;0.01;100.00
6204;BME280;3135;42.602;23.468;2023-02-14T01:42:29;94238.59;;;0.01;100.00
6204;BME280;3135;42.602;23.468;2023-02-14T01:47:23;94228.81;;;-0.05;100.00
6204;BME280;3135;42.602;23.468;2023-02-14T01:49:58;94227.19;;;-0.06;100.00
6204;BME280;3135;42.602;23.468;2023-02-14T01:52:43;94216.78;;;-0.14;100.00
6204;BME280;3135;42.602;23.468;2023-02-14T01:55:14;94237.38;;;0.04;100.00
6204;BME280;3135;42.602;23.468;2023-02-14T01:57:48;94211.66;;;-0.01;100.00
6204;BME280;3135;42.602;23.468;2023-02-14T02:00:15;94217.88;;;-0.09;100.00
6204;BME280;3135;42.602;23.468;2023-02-14T02:02:59;94225.19;;;-0.04;100.00
6204;BME280;3135;42.602;23.468;2023-02-14T02:05:26;94235.75;;;0.03;100.00
6204;BME280;3135;42.602;23.468;2023-02-14T02:07:54;94232.50;;;0.01;100.00
6204;BME280;3135;42.602;23.468;2023-02-14T02:10:21;94212.88;;;-0.25;100.00
6204;BME280;3135;42.602;23.468;2023-02-14T02:12:48;94204.75;;;-0.09;100.00
6204;BME280;3135;42.602;23.468;2023-02-14T02:15:14;94240.03;;;-0.18;100.00
6204;BME280;3135;42.602;23.468;2023-02-14T02:17:52;94228.00;;;-0.06;100.00
6204;BME280;3135;42.602;23.468;2023-02-14T02:37:23;94183.56;;;-0.01;100.00
6204;BME280;3135;42.602;23.468;2023-02-14T02:48:25;94170.41;;;-0.01;100.00
6204;BME280;3135;42.602;23.468;2023-02-14T02:50:57;94164.75;;;-0.04;100.00
6204;BME280;3135;42.602;23.468;2023-02-14T02:54:47;94182.38;;;0.02;100.00
6204;BME280;3135;42.602;23.468;2023-02-14T02:57:09;94172.91;;;0.08;100.00
6204;BME280;3135;42.602;23.468;2023-02-14T02:59:39;94167.22;;;0.04;100.00
6204;BME280;3135;42.602;23.468;2023-02-14T03:02:32;94198.19;;;0.09;100.00
6204;BME280;3135;42.602;23.468;2023-02-14T03:04:58;94185.59;;;-0.03;100.00
6204;BME280;3135;42.602;23.468;2023-02-14T03:10:24;94190.97;;;0.17;100.00
6204;BME280;3135;42.602;23.468;2023-02-14T03:21:22;94207.91;;;0.08;100.00
6204;BME280;3135;42.602;23.468;2023-02-14T03:23:57;94192.94;;;0.09;100.00
6204;BME280;3135;42.602;23.468;2023-02-14T03:26:47;94179.91;;;0.22;100.00
6204;BME280;3135;42.602;23.468;2023-02-14T03:34:45;94155.75;;;0.12;100.00
6204;BME280;3135;42.602;23.468;2023-02-14T03:40:16;94162.53;;;-0.01;100.00
6204;BME280;3135;42.602;23.468;2023-02-14T03:42:49;94159.31;;;-0.03;100.00
6204;BME280;3135;42.602;23.468;2023-02-14T03:45:22;94159.41;;;0.11;100.00
6204;BME280;3135;42.602;23.468;2023-02-14T03:47:49;94169.81;;;-0.03;100.00
6204;BME280;3135;42.602;23.468;2023-02-14T03:50:18;94172.97;;;-0.14;100.00
6204;BME280;3135;42.602;23.468;2023-02-14T03:52:46;94164.13;;;-0.06;100.00
6204;BME280;3135;42.602;23.468;2023-02-14T03:55:16;94144.19;;;-0.22;100.00
6204;BME280;3135;42.602;23.468;2023-02-14T03:58:04;94144.22;;;-0.15;100.00
6204;BME280;3135;42.602;23.468;2023-02-14T04:00:33;94136.66;;;-0.04;100.00
6204;BME280;3135;42.602;23.468;2023-02-14T04:03:05;94118.25;;;-0.32;100.00
6204;BME280;3135;42.602;23.468;2023-02-14T04:05:36;94119.75;;;-0.22;100.00
6204;BME280;3135;42.602;23.468;2023-02-14T04:08:06;94142.00;;;-0.18;100.00
6204;BME280;3135;42.602;23.468;2023-02-14T04:10:32;94116.31;;;-0.23;100.00
6204;BME280;3135;42.602;23.468;2023-02-14T04:12:58;94122.78;;;-0.19;100.00
6204;BME280;3135;42.602;23.468;2023-02-14T04:15:23;94140.75;;;-0.22;100.00
6204;BME280;3135;42.602;23.468;2023-02-14T04:17:49;94134.13;;;-0.18;100.00
6204;BME280;3135;42.602;23.468;2023-02-14T04:20:33;94131.72;;;-0.41;100.00
6204;BME280;3135;42.602;23.468;2023-02-14T04:22:59;94124.84;;;-0.42;100.00
6204;BME280;3135;42.602;23.468;2023-02-14T04:25:25;94135.63;;;-0.31;100.00
6204;BME280;3135;42.602;23.468;2023-02-14T04:27:50;94135.03;;;-0.33;100.00
6204;BME280;3135;42.602;23.468;2023-02-14T04:30:16;94140.84;;;-0.37;100.00
6204;BME280;3135;42.602;23.468;2023-02-14T04:32:42;94128.31;;;-0.35;100.00
6204;BME280;3135;42.602;23.468;2023-02-14T04:35:07;94142.22;;;-0.41;100.00
6204;BME280;3135;42.602;23.468;2023-02-14T04:37:33;94139.06;;;-0.30;100.00
6204;BME280;3135;42.602;23.468;2023-02-14T04:39:58;94130.75;;;-0.34;100.00
6204;BME280;3135;42.602;23.468;2023-02-14T04:42:24;94115.28;;;-0.50;100.00
6204;BME280;3135;42.602;23.468;2023-02-14T04:44:49;94148.16;;;-0.33;100.00
6204;BME280;3135;42.602;23.468;2023-02-14T04:47:15;94135.25;;;-0.28;100.00
6204;BME280;3135;42.602;23.468;2023-02-14T04:49:40;94115.31;;;-0.22;100.00
6204;BME280;3135;42.602;23.468;2023-02-14T04:52:06;94115.16;;;-0.14;100.00
6204;BME280;3135;42.602;23.468;2023-02-14T04:54:31;94114.38;;;-0.36;100.00
6204;BME280;3135;42.602;23.468;2023-02-14T04:56:57;94094.47;;;-0.23;100.00
6204;BME280;3135;42.602;23.468;2023-02-14T04:59:22;94123.63;;;-0.18;100.00
6204;BME280;3135;42.602;23.468;2023-02-14T05:01:48;94110.88;;;-0.43;100.00
6204;BME280;3135;42.602;23.468;2023-02-14T05:04:13;94111.19;;;-0.31;100.00
6204;BME280;3135;42.602;23.468;2023-02-14T05:06:39;94123.31;;;-0.30;100.00
6204;BME280;3135;42.602;23.468;2023-02-14T05:09:04;94087.47;;;-0.38;100.00
6204;BME280;3135;42.602;23.468;2023-02-14T05:11:30;94129.63;;;-0.24;100.00
6204;BME280;3135;42.602;23.468;2023-02-14T05:13:56;94097.25;;;-0.32;100.00
6204;BME280;3135;42.602;23.468;2023-02-14T05:16:22;94109.31;;;-0.37;100.00
6204;BME280;3135;42.602;23.468;2023-02-14T05:18:47;94077.25;;;-0.54;100.00
6204;BME280;3135;42.602;23.468;2023-02-14T05:21:13;94113.44;;;-0.49;100.00
6204;BME280;3135;42.602;23.468;2023-02-14T05:23:38;94076.38;;;-0.61;100.00
6204;BME280;3135;42.602;23.468;2023-02-14T05:26:04;94117.03;;;-0.29;100.00
6204;BME280;3135;42.602;23.468;2023-02-14T05:28:30;94100.03;;;-0.33;100.00
6204;BME280;3135;42.602;23.468;2023-02-14T05:30:56;94105.28;;;-0.33;100.00
6204;BME280;3135;42.602;23.468;2023-02-14T05:33:23;94089.28;;;-0.38;100.00
6204;BME280;3135;42.602;23.468;2023-02-14T05:35:48;94093.94;;;-0.40;100.00
6204;BME280;3135;42.602;23.468;2023-02-14T05:38:14;94101.69;;;-0.32;100.00
6204;BME280;3135;42.602;23.468;2023-02-14T05:40:40;94118.88;;;-0.30;100.00
6204;BME280;3135;42.602;23.468;2023-02-14T05:43:05;94125.69;;;-0.35;100.00
6204;BME280;3135;42.602;23.468;2023-02-14T05:45:31;94120.34;;;-0.20;100.00
6204;BME280;3135;42.602;23.468;2023-02-14T05:47:57;94103.78;;;-0.21;100.00
6204;BME280;3135;42.602;23.468;2023-02-14T05:50:22;94098.09;;;-0.24;100.00
6204;BME280;3135;42.602;23.468;2023-02-14T05:52:48;94097.28;;;-0.25;100.00
6204;BME280;3135;42.602;23.468;2023-02-14T05:55:14;94103.31;;;-0.31;100.00
6204;BME280;3135;42.602;23.468;2023-02-14T05:57:39;94109.03;;;-0.21;100.00
6204;BME280;3135;42.602;23.468;2023-02-14T06:00:06;94122.59;;;-0.17;100.00
6204;BME280;3135;42.602;23.468;2023-02-14T06:02:32;94087.59;;;-0.24;100.00
6204;BME280;3135;42.602;23.468;2023-02-14T06:04:57;94105.41;;;-0.20;100.00
6204;BME280;3135;42.602;23.468;2023-02-14T06:07:23;94112.91;;;-0.17;100.00
6204;BME280;3135;42.602;23.468;2023-02-14T06:09:49;94094.03;;;-0.27;100.00
6204;BME280;3135;42.602;23.468;2023-02-14T06:12:14;94111.53;;;-0.13;100.00
6204;BME280;3135;42.602;23.468;2023-02-14T06:14:40;94125.16;;;-0.24;100.00
6204;BME280;3135;42.602;23.468;2023-02-14T06:17:08;94112.22;;;-0.26;100.00
6204;BME280;3135;42.602;23.468;2023-02-14T06:19:33;94105.41;;;-0.20;100.00
6204;BME280;3135;42.602;23.468;2023-02-14T06:21:59;94126.19;;;0.03;100.00
6204;BME280;3135;42.602;23.468;2023-02-14T06:24:24;94132.25;;;0.04;100.00
6204;BME280;3135;42.602;23.468;2023-02-14T06:26:49;94114.41;;;-0.08;100.00
6204;BME280;3135;42.602;23.468;2023-02-14T06:29:16;94118.25;;;-0.04;100.00
6204;BME280;3135;42.602;23.468;2023-02-14T06:31:41;94106.28;;;-0.13;100.00
6204;BME280;3135;42.602;23.468;2023-02-14T06:34:07;94119.75;;;0.06;100.00
6204;BME280;3135;42.602;23.468;2023-02-14T06:36:32;94098.84;;;-0.03;100.00
6204;BME280;3135;42.602;23.468;2023-02-14T06:38:58;94102.72;;;0.02;100.00
6204;BME280;3135;42.602;23.468;2023-02-14T06:41:23;94119.56;;;0.14;100.00
6204;BME280;3135;42.602;23.468;2023-02-14T06:43:49;94128.19;;;0.29;100.00
6204;BME280;3135;42.602;23.468;2023-02-14T06:46:16;94124.19;;;0.40;100.00
6204;BME280;3135;42.602;23.468;2023-02-14T06:48:42;94123.91;;;0.28;100.00
6204;BME280;3135;42.602;23.468;2023-02-14T06:51:08;94126.00;;;0.39;100.00
6204;BME280;3135;42.602;23.468;2023-02-14T06:53:33;94100.25;;;0.28;100.00
6204;BME280;3135;42.602;23.468;2023-02-14T06:55:59;94109.78;;;0.29;100.00
6204;BME280;3135;42.602;23.468;2023-02-14T06:58:24;94113.09;;;0.51;100.00
6204;BME280;3135;42.602;23.468;2023-02-14T07:00:49;94099.88;;;0.31;100.00
6204;BME280;3135;42.602;23.468;2023-02-14T07:03:15;94111.28;;;0.45;100.00
6204;BME280;3135;42.602;23.468;2023-02-14T07:05:41;94105.19;;;0.44;100.00
6204;BME280;3135;42.602;23.468;2023-02-14T07:08:09;94085.53;;;0.34;100.00
6204;BME280;3135;42.602;23.468;2023-02-14T07:10:34;94097.16;;;0.53;100.00
6204;BME280;3135;42.602;23.468;2023-02-14T07:13:00;94084.25;;;0.64;100.00
6204;BME280;3135;42.602;23.468;2023-02-14T07:15:25;94063.13;;;0.51;100.00
6204;BME280;3135;42.602;23.468;2023-02-14T07:17:51;94082.63;;;0.63;100.00
6204;BME280;3135;42.602;23.468;2023-02-14T07:20:17;94079.19;;;0.63;100.00
6204;BME280;3135;42.602;23.468;2023-02-14T07:22:43;94072.84;;;0.50;100.00
6204;BME280;3135;42.602;23.468;2023-02-14T07:25:09;94100.66;;;0.73;100.00
6204;BME280;3135;42.602;23.468;2023-02-14T07:27:35;94088.09;;;0.68;100.00
6204;BME280;3135;42.602;23.468;2023-02-14T07:30:01;94100.28;;;0.83;100.00
6204;BME280;3135;42.602;23.468;2023-02-14T07:32:26;94079.63;;;0.73;100.00
6204;BME280;3135;42.602;23.468;2023-02-14T07:34:51;94108.56;;;0.80;100.00
6204;BME280;3135;42.602;23.468;2023-02-14T07:37:17;94087.34;;;0.81;100.00
6204;BME280;3135;42.602;23.468;2023-02-14T07:39:44;94095.47;;;0.86;100.00
6204;BME280;3135;42.602;23.468;2023-02-14T07:42:10;94099.88;;;0.79;100.00
6204;BME280;3135;42.602;23.468;2023-02-14T07:44:36;94097.03;;;0.74;100.00
6204;BME280;3135;42.602;23.468;2023-02-14T07:47:05;94102.34;;;0.81;100.00
6204;BME280;3135;42.602;23.468;2023-02-14T07:49:31;94099.81;;;0.66;100.00
6204;BME280;3135;42.602;23.468;2023-02-14T07:51:56;94116.03;;;0.69;100.00
6204;BME280;3135;42.602;23.468;2023-02-14T07:54:22;94091.88;;;0.53;100.00
6204;BME280;3135;42.602;23.468;2023-02-14T07:56:48;94125.38;;;0.72;100.00
6204;BME280;3135;42.602;23.468;2023-02-14T07:59:13;94094.69;;;0.44;100.00
6204;BME280;3135;42.602;23.468;2023-02-14T08:01:38;94107.69;;;0.53;100.00
6204;BME280;3135;42.602;23.468;2023-02-14T08:04:04;94123.69;;;0.64;100.00
6204;BME280;3135;42.602;23.468;2023-02-14T08:06:29;94119.19;;;0.51;100.00
6204;BME280;3135;42.602;23.468;2023-02-14T08:08:55;94114.31;;;0.48;100.00
6204;BME280;3135;42.602;23.468;2023-02-14T08:11:20;94102.56;;;0.44;100.00
6204;BME280;3135;42.602;23.468;2023-02-14T08:14:04;94111.88;;;0.47;100.00
6204;BME280;3135;42.602;23.468;2023-02-14T08:16:29;94109.81;;;0.42;100.00
6204;BME280;3135;42.602;23.468;2023-02-14T08:18:59;94123.69;;;0.58;100.00
6204;BME280;3135;42.602;23.468;2023-02-14T08:21:24;94121.66;;;0.60;100.00
6204;BME280;3135;42.602;23.468;2023-02-14T08:23:50;94108.66;;;0.51;100.00
6204;BME280;3135;42.602;23.468;2023-02-14T08:26:15;94114.31;;;0.48;100.00
6204;BME280;3135;42.602;23.468;2023-02-14T08:28:42;94131.94;;;0.55;100.00
6204;BME280;3135;42.602;23.468;2023-02-14T08:31:08;94111.28;;;0.45;100.00
6204;BME280;3135;42.602;23.468;2023-02-14T08:33:33;94136.28;;;0.69;100.00
6204;BME280;3135;42.602;23.468;2023-02-14T08:35:59;94120.03;;;0.59;100.00
6204;BME280;3135;42.602;23.468;2023-02-14T08:38:25;94097.69;;;0.41;100.00
6204;BME280;3135;42.602;23.468;2023-02-14T08:40:50;94095.72;;;0.50;100.00
6204;BME280;3135;42.602;23.468;2023-02-14T08:43:16;94105.69;;;0.61;100.00
6204;BME280;3135;42.602;23.468;2023-02-14T08:45:41;94122.91;;;0.70;100.00
6204;BME280;3135;42.602;23.468;2023-02-14T08:48:09;94117.41;;;0.59;100.00
6204;BME280;3135;42.602;23.468;2023-02-14T08:50:36;94130.63;;;0.79;100.00
6204;BME280;3135;42.602;23.468;2023-02-14T08:53:06;94121.72;;;0.73;100.00
6204;BME280;3135;42.602;23.468;2023-02-14T08:55:32;94138.75;;;0.84;100.00
6204;BME280;3135;42.602;23.468;2023-02-14T08:57:58;94133.03;;;0.67;100.00
6204;BME280;3135;42.602;23.468;2023-02-14T09:00:25;94125.53;;;0.64;100.00
6204;BME280;3135;42.602;23.468;2023-02-14T09:02:51;94113.22;;;0.71;100.00
6204;BME280;3135;42.602;23.468;2023-02-14T09:05:17;94135.47;;;0.75;100.00
6204;BME280;3135;42.602;23.468;2023-02-14T09:07:43;94115.34;;;0.54;100.00
6204;BME280;3135;42.602;23.468;2023-02-14T09:10:09;94131.38;;;0.66;100.00
6204;BME280;3135;42.602;23.468;2023-02-14T09:12:38;94146.56;;;0.64;100.00
6204;BME280;3135;42.602;23.468;2023-02-14T09:15:04;94146.72;;;0.56;100.00
6204;BME280;3135;42.602;23.468;2023-02-14T09:17:29;94123.47;;;0.53;100.00
6204;BME280;3135;42.602;23.468;2023-02-14T09:19:55;94117.19;;;0.60;100.00
6204;BME280;3135;42.602;23.468;2023-02-14T09:22:20;94111.56;;;0.63;100.00
6204;BME280;3135;42.602;23.468;2023-02-14T09:24:46;94113.97;;;0.65;100.00
6204;BME280;3135;42.602;23.468;2023-02-14T09:27:11;94104.09;;;0.67;100.00
6204;BME280;3135;42.602;23.468;2023-02-14T09:29:37;94095.13;;;0.55;100.00
6204;BME280;3135;42.602;23.468;2023-02-14T09:32:03;94105.66;;;0.55;100.00
6204;BME280;3135;42.602;23.468;2023-02-14T09:34:30;94114.63;;;0.67;100.00
6204;BME280;3135;42.602;23.468;2023-02-14T09:37:15;94099.38;;;0.56;100.00
6204;BME280;3135;42.602;23.468;2023-02-14T09:39:41;94099.78;;;0.53;100.00
6204;BME280;3135;42.602;23.468;2023-02-14T09:44:54;94080.75;;;0.50;100.00
6204;BME280;3135;42.602;23.468;2023-02-14T09:49:59;94088.94;;;0.75;100.00
6204;BME280;3135;42.602;23.468;2023-02-14T09:52:27;94099.06;;;0.72;100.00
6204;BME280;3135;42.602;23.468;2023-02-14T09:54:57;94099.44;;;0.69;100.00
6204;BME280;3135;42.602;23.468;2023-02-14T09:58:02;94099.44;;;0.69;100.00
6204;BME280;3135;42.602;23.468;2023-02-14T10:00:50;94075.91;;;0.61;100.00
6204;BME280;3135;42.602;23.468;2023-02-14T10:06:17;94086.97;;;0.91;100.00
6204;BME280;3135;42.602;23.468;2023-02-14T10:11:46;94078.59;;;0.74;100.00
6204;BME280;3135;42.602;23.468;2023-02-14T10:14:22;94095.03;;;0.89;100.00
6204;BME280;3135;42.602;23.468;2023-02-14T10:17:00;94094.59;;;0.79;100.00
6204;BME280;3135;42.602;23.468;2023-02-14T10:19:36;94075.97;;;0.67;100.00
6204;BME280;3135;42.602;23.468;2023-02-14T10:22:06;94069.69;;;0.75;100.00
6204;BME280;3135;42.602;23.468;2023-02-14T10:24:38;94082.09;;;0.88;100.00
6204;BME280;3135;42.602;23.468;2023-02-14T10:27:30;94070.75;;;0.87;100.00
6204;BME280;3135;42.602;23.468;2023-02-14T10:29:57;94072.00;;;0.98;100.00
6204;BME280;3135;42.602;23.468;2023-02-14T10:34:56;94076.25;;;0.92;100.00
6204;BME280;3135;42.602;23.468;2023-02-14T10:37:28;94086.34;;;0.89;100.00
6204;BME280;3135;42.602;23.468;2023-02-14T10:40:33;94057.97;;;0.77;100.00
6204;BME280;3135;42.602;23.468;2023-02-14T10:51:24;94077.00;;;0.80;100.00
6204;BME280;3135;42.602;23.468;2023-02-14T10:57:02;94071.13;;;0.71;100.00
6204;BME280;3135;42.602;23.468;2023-02-14T10:59:38;94057.13;;;0.64;100.00
6204;BME280;3135;42.602;23.468;2023-02-14T11:02:14;94061.38;;;0.65;100.00
6204;BME280;3135;42.602;23.468;2023-02-14T11:04:41;94061.38;;;0.65;100.00
6204;BME280;3135;42.602;23.468;2023-02-14T11:07:13;94058.94;;;0.63;100.00
6204;BME280;3135;42.602;23.468;2023-02-14T11:09:39;94068.72;;;0.76;100.00
6204;BME280;3135;42.602;23.468;2023-02-14T11:12:04;94070.47;;;0.62;100.00
6204;BME280;3135;42.602;23.468;2023-02-14T11:14:35;94046.34;;;0.45;100.00
6204;BME280;3135;42.602;23.468;2023-02-14T11:17:30;94073.28;;;0.61;100.00
6204;BME280;3135;42.602;23.468;2023-02-14T11:20:00;94052.41;;;0.46;100.00
6204;BME280;3135;42.602;23.468;2023-02-14T11:22:31;94069.84;;;0.60;100.00
6204;BME280;3135;42.602;23.468;2023-02-14T11:27:47;94056.97;;;0.72;100.00
6204;BME280;3135;42.602;23.468;2023-02-14T11:30:34;94044.34;;;0.61;100.00
6204;BME280;3135;42.602;23.468;2023-02-14T11:33:00;94040.09;;;0.60;100.00
6204;BME280;3135;42.602;23.468;2023-02-14T11:35:28;94029.75;;;0.51;100.00
6204;BME280;3135;42.602;23.468;2023-02-14T11:38:00;94045.81;;;0.70;100.00
6204;BME280;3135;42.602;23.468;2023-02-14T11:42:57;94032.84;;;0.62;100.00
6204;BME280;3135;42.602;23.468;2023-02-14T11:45:28;94053.31;;;0.73;100.00
6204;BME280;3135;42.602;23.468;2023-02-14T11:53:21;94016.59;;;0.51;100.00
6204;BME280;3135;42.602;23.468;2023-02-14T11:55:52;94041.13;;;0.65;100.00
6204;BME280;3135;42.602;23.468;2023-02-14T12:01:35;94015.50;;;0.81;100.00
6204;BME280;3135;42.602;23.468;2023-02-14T12:04:29;94015.72;;;0.86;100.00
6204;BME280;3135;42.602;23.468;2023-02-14T12:07:13;93997.03;;;0.74;100.00
6204;BME280;3135;42.602;23.468;2023-02-14T12:09:40;93984.69;;;0.74;100.00
6204;BME280;3135;42.602;23.468;2023-02-14T12:12:21;93988.56;;;0.79;100.00
6204;BME280;3135;42.602;23.468;2023-02-14T12:14:48;94000.09;;;0.84;100.00
6204;BME280;3135;42.602;23.468;2023-02-14T12:17:28;93988.75;;;0.84;100.00
6204;BME280;3135;42.602;23.468;2023-02-14T12:20:16;93989.34;;;0.79;100.00
6204;BME280;3135;42.602;23.468;2023-02-14T12:23:14;94014.28;;;0.96;100.00
6204;BME280;3135;42.602;23.468;2023-02-14T12:26:12;94022.41;;;0.95;100.00
6204;BME280;3135;42.602;23.468;2023-02-14T12:28:46;93983.91;;;0.81;100.00
6204;BME280;3135;42.602;23.468;2023-02-14T12:31:14;93997.06;;;0.87;100.00
6204;BME280;3135;42.602;23.468;2023-02-14T12:33:40;93995.47;;;0.86;100.00
6204;BME280;3135;42.602;23.468;2023-02-14T12:36:37;94004.38;;;0.98;100.00
6204;BME280;3135;42.602;23.468;2023-02-14T12:39:19;94002.16;;;1.02;100.00
6204;BME280;3135;42.602;23.468;2023-02-14T12:45:18;93986.78;;;1.19;100.00
6204;BME280;3135;42.602;23.468;2023-02-14T13:04:58;93976.25;;;1.19;100.00
6204;BME280;3135;42.602;23.468;2023-02-14T13:10:09;93985.56;;;1.21;100.00
6204;BME280;3135;42.602;23.468;2023-02-14T13:12:48;93979.47;;;1.21;100.00
6204;BME280;3135;42.602;23.468;2023-02-14T13:18:44;93981.31;;;1.34;100.00
6204;BME280;3135;42.602;23.468;2023-02-14T13:21:14;93976.66;;;1.29;100.00
6204;BME280;3135;42.602;23.468;2023-02-14T13:23:46;93985.78;;;1.33;100.00
6204;BME280;3135;42.602;23.468;2023-02-14T13:26:18;93977.69;;;1.28;100.00
6204;BME280;3135;42.602;23.468;2023-02-14T13:28:49;93958.63;;;1.13;100.00
6204;BME280;3135;42.602;23.468;2023-02-14T13:31:17;93980.50;;;1.33;100.00
6204;BME280;3135;42.602;23.468;2023-02-14T13:33:49;93981.72;;;1.37;100.00
6204;BME280;3135;42.602;23.468;2023-02-14T13:36:16;93969.97;;;1.20;100.00
6204;BME280;3135;42.602;23.468;2023-02-14T13:38:49;93968.34;;;1.32;100.00
6204;BME280;3135;42.602;23.468;2023-02-14T13:41:16;93980.09;;;1.23;100.00
6204;BME280;3135;42.602;23.468;2023-02-14T13:46:12;93982.13;;;1.21;100.00
6204;BME280;3135;42.602;23.468;2023-02-14T13:48:39;93983.75;;;1.28;100.00
6204;BME280;3135;42.602;23.468;2023-02-14T13:51:09;93967.94;;;1.28;100.00
6204;BME280;3135;42.602;23.468;2023-02-14T13:53:42;93978.06;;;1.25;100.00
6204;BME280;3135;42.602;23.468;2023-02-14T13:58:54;93981.31;;;1.20;100.00
6204;BME280;3135;42.602;23.468;2023-02-14T14:01:29;93977.25;;;1.31;100.00
6204;BME280;3135;42.602;23.468;2023-02-14T14:04:02;93980.31;;;1.28;100.00
6204;BME280;3135;42.602;23.468;2023-02-14T14:06:29;93966.31;;;1.21;100.00
6204;BME280;3135;42.602;23.468;2023-02-14T14:09:56;93977.66;;;1.21;100.00
6204;BME280;3135;42.602;23.468;2023-02-14T14:19:56;93974.22;;;1.14;100.00
6204;BME280;3135;42.602;23.468;2023-02-14T14:22:23;93978.88;;;1.25;100.00
6204;BME280;3135;42.602;23.468;2023-02-14T14:29:57;93975.84;;;1.22;100.00
6204;BME280;3135;42.602;23.468;2023-02-14T14:32:31;93961.47;;;1.11;100.00
6204;BME280;3135;42.602;23.468;2023-02-14T14:35:02;93943.03;;;1.11;100.00
6204;BME280;3135;42.602;23.468;2023-02-14T14:37:34;93953.34;;;1.13;100.00
6204;BME280;3135;42.602;23.468;2023-02-14T14:40:03;93961.25;;;1.26;100.00
6204;BME280;3135;42.602;23.468;2023-02-14T14:42:36;93934.75;;;0.94;100.00
6204;BME280;3135;42.602;23.468;2023-02-14T14:45:19;93951.94;;;1.17;100.00
6204;BME280;3135;42.602;23.468;2023-02-14T14:47:46;93934.13;;;0.99;100.00
6204;BME280;3135;42.602;23.468;2023-02-14T14:50:30;93960.66;;;1.04;100.00
6204;BME280;3135;42.602;23.468;2023-02-14T14:52:59;93961.84;;;1.08;100.00
6204;BME280;3135;42.602;23.468;2023-02-14T14:55:28;93965.91;;;0.97;100.00
6204;BME280;3135;42.602;23.468;2023-02-14T14:58:03;93958.63;;;0.99;100.00
6204;BME280;3135;42.602;23.468;2023-02-14T15:00:34;93968.75;;;1.09;100.00
6204;BME280;3135;42.602;23.468;2023-02-14T15:03:04;93962.88;;;1.00;100.00
6204;BME280;3135;42.602;23.468;2023-02-14T15:05:32;93976.22;;;1.12;100.00
6204;BME280;3135;42.602;23.468;2023-02-14T15:08:11;93978.06;;;1.05;100.00
6204;BME280;3135;42.602;23.468;2023-02-14T15:10:37;93962.69;;;0.95;100.00
6204;BME280;3135;42.602;23.468;2023-02-14T15:13:03;93949.91;;;0.86;100.00
6204;BME280;3135;42.602;23.468;2023-02-14T15:15:48;93972.78;;;0.98;100.00
6204;BME280;3135;42.602;23.468;2023-02-14T15:18:16;93969.94;;;0.93;100.00
6204;BME280;3135;42.602;23.468;2023-02-14T15:20:48;93963.28;;;0.97;100.00
6204;BME280;3135;42.602;23.468;2023-02-14T15:23:21;93955.78;;;1.01;100.00
6204;BME280;3135;42.602;23.468;2023-02-14T15:25:47;93962.50;;;1.04;100.00
6204;BME280;3135;42.602;23.468;2023-02-14T15:28:25;93950.31;;;0.96;100.00
6204;BME280;3135;42.602;23.468;2023-02-14T15:30:55;93973.19;;;0.95;100.00